Time;durP1;ratioP1;P1;durP2;ratioP2;P2;SDS_P1;SDS_P2;PMS_P1;PMS_P2;Temp;Humidity;BMP_temperature;BMP_pressure;BME280_temperature;BME280_humidity;BME280_pressure;Samples;Min_cycle;Max_cycle;Signal;HPM_P1;HPM_P2
2023/05/05 00:05:00;;;;;;;3.45;1.10;;;;;;;19.62;36.90;101424.13;16118647;19;129932;-40
2023/05/05 00:10:23;;;;;;;1.90;0.90;;;;;;;19.61;37.16;101422.44;16116127;19;130342;-40
2023/05/05 00:15:46;;;;;;;1.58;1.15;;;;;;;19.60;37.38;101426.31;16110587;19;130389;-44
2023/05/05 00:21:08;;;;;;;1.92;1.35;;;;;;;19.59;37.03;101413.50;16113823;19;131142;-40
2023/05/05 00:26:30;;;;;;;4.43;1.15;;;;;;;19.58;37.32;101425.69;16117825;19;130120;-39
2023/05/05 00:31:52;;;;;;;1.38;1.00;;;;;;;19.58;37.01;101431.25;16112519;19;130031;-40
2023/05/05 00:37:14;;;;;;;2.05;1.15;;;;;;;19.56;37.22;101419.56;16107797;19;131597;-39
2023/05/05 00:42:39;;;;;;;1.50;1.00;;;;;;;19.56;37.17;101405.69;16110851;19;130005;-43
2023/05/05 00:48:01;;;;;;;2.25;1.35;;;;;;;19.55;37.02;101408.69;16110940;19;130229;-39
2023/05/05 00:53:26;;;;;;;2.83;0.90;;;;;;;19.53;37.21;101401.44;16115525;19;131156;-40
2023/05/05 00:58:48;;;;;;;1.88;0.80;;;;;;;19.53;36.85;101406.16;16112973;19;129568;-42
2023/05/05 01:04:10;;;;;;;0.88;0.70;;;;;;;19.52;37.12;101407.25;16107104;19;130203;-41
2023/05/05 01:09:40;;;;;;;1.05;0.55;;;;;;;19.53;37.15;101408.94;16110267;19;129431;-40
2023/05/05 01:15:10;;;;;;;1.35;0.68;;;;;;;19.52;36.84;101421.13;16109356;19;130610;-41
2023/05/05 01:20:44;;;;;;;0.73;0.63;;;;;;;19.51;37.24;101427.75;16111490;19;130400;-40
2023/05/05 01:26:38;;;;;;;1.23;0.60;;;;;;;19.51;37.25;101425.81;16111684;19;130343;-40
2023/05/05 01:32:03;;;;;;;0.90;0.60;;;;;;;19.49;37.11;101427.16;16106944;19;133571;-41
2023/05/05 01:37:49;;;;;;;1.35;0.70;;;;;;;19.49;36.98;101425.22;16109608;19;130636;-39
2023/05/05 01:43:14;;;;;;;0.88;0.60;;;;;;;19.47;37.06;101424.63;16109181;19;129595;-41
2023/05/05 01:48:38;;;;;;;0.73;0.50;;;;;;;19.47;36.95;101426.53;16105904;19;130894;-40
2023/05/05 01:54:06;;;;;;;1.45;0.60;;;;;;;19.47;36.99;101432.09;16112934;19;129585;-40
2023/05/05 01:59:29;;;;;;;0.82;0.50;;;;;;;19.46;36.97;101447.03;16126579;19;131459;-41
2023/05/05 02:04:53;;;;;;;0.90;0.40;;;;;;;19.45;37.15;101442.56;16126933;19;132093;-41
2023/05/05 02:10:15;;;;;;;0.70;0.37;;;;;;;19.45;36.98;101453.66;16122288;19;130447;-39
2023/05/05 02:15:39;;;;;;;0.68;0.50;;;;;;;19.45;37.15;101450.91;16122426;19;130125;-41
2023/05/05 02:21:02;;;;;;;0.57;0.50;;;;;;;19.43;36.71;101453.94;16123530;19;130585;-41
2023/05/05 02:26:25;;;;;;;0.50;0.47;;;;;;;19.43;36.79;101439.22;16124319;19;130203;-41
2023/05/05 02:31:49;;;;;;;0.70;0.52;;;;;;;19.42;37.10;101438.34;16122568;19;130420;-39
2023/05/05 02:37:18;;;;;;;0.50;0.50;;;;;;;19.41;37.10;101456.09;16118225;19;132310;-40
2023/05/05 02:42:45;;;;;;;0.50;0.50;;;;;;;19.42;36.93;101456.94;16123401;19;134958;-40
2023/05/05 02:48:09;;;;;;;0.47;0.43;;;;;;;19.41;36.96;101472.75;16122406;19;129757;-42
2023/05/05 02:53:31;;;;;;;0.60;0.50;;;;;;;19.39;36.83;101458.25;16121654;19;130110;-42
2023/05/05 02:59:07;;;;;;;1.30;0.57;;;;;;;19.39;37.09;101472.13;16112003;19;130221;-40
2023/05/05 03:04:37;;;;;;;0.40;0.40;;;;;;;19.38;37.15;101454.66;16113841;19;131308;-40
2023/05/05 03:10:19;;;;;;;0.73;0.50;;;;;;;19.37;37.03;101475.16;16121213;19;130426;-40
2023/05/05 03:15:47;;;;;;;2.20;0.50;;;;;;;19.36;37.01;101484.56;16115214;19;129808;-39
2023/05/05 03:21:09;;;;;;;0.63;0.40;;;;;;;19.34;36.66;101478.38;16121762;19;130172;-40
2023/05/05 03:26:31;;;;;;;3.08;0.70;;;;;;;19.33;36.78;101476.69;16121722;19;130192;-39
2023/05/05 03:31:53;;;;;;;0.68;0.60;;;;;;;19.33;36.84;101485.03;16117591;19;130854;-40
2023/05/05 03:37:15;;;;;;;0.40;0.35;;;;;;;19.34;37.06;101481.16;16116312;19;129302;-40
2023/05/05 03:42:37;;;;;;;0.30;0.30;;;;;;;19.32;36.59;101474.16;16116876;19;131404;-40
2023/05/05 03:47:58;;;;;;;0.55;0.40;;;;;;;19.30;36.94;101474.41;16118077;19;131690;-40
2023/05/05 03:53:20;;;;;;;0.60;0.35;;;;;;;19.31;36.93;101481.66;16113427;19;131079;-39
2023/05/05 03:58:42;;;;;;;0.50;0.30;;;;;;;19.31;36.80;101483.56;16116729;19;130686;-40
2023/05/05 04:04:04;;;;;;;0.60;0.30;;;;;;;19.30;36.84;101484.66;16113176;19;130609;-40
2023/05/05 04:09:26;;;;;;;2.00;0.45;;;;;;;19.29;36.62;101469.09;16115310;19;131019;-39
2023/05/05 04:14:48;;;;;;;0.98;0.50;;;;;;;19.28;36.59;101467.41;16113591;19;130316;-41
2023/05/05 04:20:11;;;;;;;0.50;0.50;;;;;;;19.26;36.82;101462.09;16114628;19;131521;-40
2023/05/05 04:25:32;;;;;;;0.30;0.30;;;;;;;19.26;36.82;101453.78;16116021;19;130446;-39
2023/05/05 04:30:54;;;;;;;0.60;0.50;;;;;;;19.26;36.70;101439.91;16112321;19;130539;-40
2023/05/05 04:36:17;;;;;;;0.80;0.50;;;;;;;19.24;36.68;101447.63;16111852;19;130324;-41
2023/05/05 04:41:39;;;;;;;0.32;0.32;;;;;;;19.23;36.80;101462.56;16114512;19;130431;-40
2023/05/05 04:47:02;;;;;;;2.13;0.30;;;;;;;19.23;36.59;101465.34;16115121;19;130815;-43
2023/05/05 04:52:24;;;;;;;0.70;0.40;;;;;;;19.22;36.98;101475.59;16116438;19;129936;-39
2023/05/05 04:57:45;;;;;;;1.15;0.50;;;;;;;19.23;36.55;101490.31;16118442;19;131869;-39
2023/05/05 05:03:08;;;;;;;1.48;0.57;;;;;;;19.22;36.74;101485.84;16106477;19;132188;-39
2023/05/05 05:08:30;;;;;;;0.52;0.30;;;;;;;19.20;37.05;101488.00;16114323;19;129361;-39
2023/05/05 05:13:52;;;;;;;0.52;0.30;;;;;;;19.20;36.67;101505.47;16111457;19;129486;-41
2023/05/05 05:19:14;;;;;;;0.25;0.17;;;;;;;19.21;36.99;101506.34;16112443;19;129007;-48
2023/05/05 05:24:36;;;;;;;0.47;0.28;;;;;;;19.22;36.89;101506.13;16115522;19;132048;-48
2023/05/05 05:29:58;;;;;;;0.20;0.20;;;;;;;19.35;36.68;101526.41;16108796;19;130287;-42
2023/05/05 05:35:20;;;;;;;4.68;0.32;;;;;;;19.57;36.81;101539.75;16113700;19;131128;-41
2023/05/05 05:40:42;;;;;;;1.63;0.50;;;;;;;19.81;37.15;101543.41;16110368;19;129963;-46
2023/05/05 05:46:04;;;;;;;3.55;1.35;;;;;;;19.95;36.82;101542.06;16107454;19;129577;-39
2023/05/05 05:51:30;;;;;;;;;;;;;;;20.03;36.64;101548.41;16107811;19;130744;-39
2023/05/05 05:56:52;;;;;;;4.57;0.70;;;;;;;20.08;36.53;101559.63;16105457;19;131179;-39
2023/05/05 06:02:13;;;;;;;7.43;0.80;;;;;;;20.07;36.88;101560.72;16108152;19;129786;-39
2023/05/05 06:07:35;;;;;;;6.20;0.70;;;;;;;20.07;36.74;101556.03;16107487;19;130819;-38
2023/05/05 06:12:57;;;;;;;6.80;0.95;;;;;;;20.06;36.78;101559.03;16113507;19;129638;-39
2023/05/05 06:18:19;;;;;;;9.32;1.00;;;;;;;20.05;37.25;101562.91;16108071;19;129424;-39
2023/05/05 06:23:41;;;;;;;8.18;1.00;;;;;;;20.03;37.63;101559.53;16110281;19;132037;-38
2023/05/05 06:29:03;;;;;;;2.97;0.85;;;;;;;20.01;37.32;101567.25;16111258;19;129755;-40
2023/05/05 06:34:25;;;;;;;7.07;1.20;;;;;;;19.98;37.82;101572.16;16111916;19;130222;-38
2023/05/05 06:39:47;;;;;;;4.78;1.17;;;;;;;19.96;37.89;101570.72;16110795;19;129459;-39
2023/05/05 06:45:10;;;;;;;5.20;1.27;;;;;;;19.93;37.59;101580.38;16127569;19;130609;-38
2023/05/05 06:50:32;;;;;;;9.38;1.10;;;;;;;19.92;37.88;101584.25;16128146;19;130122;-39
2023/05/05 06:55:53;;;;;;;5.03;1.20;;;;;;;19.98;37.70;101585.22;16123015;19;129589;-39
2023/05/05 07:01:15;;;;;;;3.47;1.13;;;;;;;20.01;38.12;101584.75;16125034;19;130067;-39
2023/05/05 07:06:37;;;;;;;3.13;1.08;;;;;;;20.03;37.89;101577.00;16121748;19;130970;-39
2023/05/05 07:11:59;;;;;;;4.18;1.30;;;;;;;20.04;38.13;101577.88;16120643;19;129850;-38
2023/05/05 07:17:21;;;;;;;4.43;1.60;;;;;;;20.02;38.42;101574.50;16122980;19;129796;-39
2023/05/05 07:22:43;;;;;;;9.07;2.00;;;;;;;20.02;38.81;101568.94;16124362;19;130439;-39
2023/05/05 07:28:05;;;;;;;15.40;1.92;;;;;;;20.05;38.73;101585.97;16124569;19;130858;-39
2023/05/05 07:33:27;;;;;;;11.63;2.03;;;;;;;20.12;38.53;101566.41;16121957;19;131353;-39
2023/05/05 07:38:49;;;;;;;12.02;1.70;;;;;;;20.17;38.71;101566.53;16120360;19;130801;-39
2023/05/05 07:44:11;;;;;;;13.68;1.63;;;;;;;20.28;38.38;101565.69;16118033;19;130353;-40
2023/05/05 07:49:32;;;;;;;10.13;1.75;;;;;;;20.39;38.63;101574.25;16123053;19;130408;-40
2023/05/05 07:54:55;;;;;;;7.07;1.50;;;;;;;20.47;38.26;101576.66;16108298;19;129594;-40
2023/05/05 08:00:18;;;;;;;7.28;1.27;;;;;;;20.52;38.40;101579.56;16115816;19;129520;-39
2023/05/05 08:05:40;;;;;;;6.07;1.45;;;;;;;20.54;38.27;101588.50;16116470;19;132236;-39
2023/05/05 08:11:03;;;;;;;9.88;1.50;;;;;;;20.55;37.91;101590.19;16121951;19;131454;-41
2023/05/05 08:16:25;;;;;;;3.95;1.13;;;;;;;20.55;38.12;101592.97;16117827;19;130748;-47
2023/05/05 08:21:47;;;;;;;5.15;1.15;;;;;;;20.52;38.06;101600.94;16119118;19;130520;-40
2023/05/05 08:27:08;;;;;;;4.05;1.10;;;;;;;20.51;37.93;101599.25;16119667;19;129764;-39
2023/05/05 08:32:31;;;;;;;4.47;1.30;;;;;;;20.51;37.94;101588.13;16119219;19;129318;-40
2023/05/05 08:37:53;;;;;;;7.80;1.13;;;;;;;20.49;38.01;101580.03;16117232;19;131298;-39
2023/05/05 08:43:22;;;;;;;2.63;1.03;;;;;;;20.50;38.30;101590.06;16117350;19;129441;-39
2023/05/05 08:48:44;;;;;;;3.17;1.00;;;;;;;20.52;37.92;101595.38;16116810;19;130293;-39
2023/05/05 08:54:13;;;;;;;4.80;1.13;;;;;;;20.52;38.21;101599.03;16117392;19;129670;-40
2023/05/05 08:59:37;;;;;;;9.60;1.05;;;;;;;20.54;37.91;101596.00;16107859;19;129509;-40
2023/05/05 09:05:03;;;;;;;5.60;1.20;;;;;;;20.54;38.10;101594.06;16114491;19;130028;-39
2023/05/05 09:10:27;;;;;;;5.22;1.23;;;;;;;20.53;38.25;101594.28;16116872;19;131154;-39
2023/05/05 09:15:51;;;;;;;4.00;1.15;;;;;;;20.53;37.99;101595.16;16105433;19;129627;-40
2023/05/05 09:21:20;;;;;;;3.88;1.17;;;;;;;20.53;38.40;101589.59;16103056;19;129935;-41
2023/05/05 09:26:44;;;;;;;4.78;1.30;;;;;;;20.49;38.21;101588.38;16109372;19;131382;-39
2023/05/05 09:32:07;;;;;;;4.80;0.90;;;;;;;20.51;38.15;101594.56;16107284;19;133362;-39
2023/05/05 09:37:30;;;;;;;4.18;1.25;;;;;;;20.50;37.99;101609.53;16116810;19;129449;-39
2023/05/05 09:43:00;;;;;;;2.50;0.88;;;;;;;20.48;38.16;101600.59;16116170;19;129300;-39
2023/05/05 09:48:26;;;;;;;4.20;1.08;;;;;;;20.48;38.34;101608.09;16115622;19;129638;-40
2023/05/05 09:53:48;;;;;;;4.60;0.82;;;;;;;20.46;38.51;101608.31;16114067;19;129921;-41
2023/05/05 09:59:10;;;;;;;3.20;0.88;;;;;;;20.45;38.43;101610.25;16110578;19;131842;-39
2023/05/05 10:04:32;;;;;;;3.38;1.10;;;;;;;20.43;38.24;101604.09;16110377;19;130622;-39
2023/05/05 10:09:55;;;;;;;5.18;0.95;;;;;;;20.43;38.30;101611.59;16115094;19;130231;-39
2023/05/05 10:15:17;;;;;;;1.92;0.88;;;;;;;20.43;38.34;101603.25;16112085;19;129468;-39
2023/05/05 10:20:42;;;;;;;4.13;1.10;;;;;;;20.43;38.72;101597.72;16126083;19;129375;-41
2023/05/05 10:26:09;;;;;;;4.93;1.30;;;;;;;20.44;38.92;101604.94;16124417;19;129879;-40
2023/05/05 10:32:00;;;;;;;5.85;1.10;;;;;;;20.46;38.91;101613.88;16119600;19;129658;-40
2023/05/05 10:37:46;;;;;;;2.40;0.95;;;;;;;20.50;38.78;101598.41;16115523;19;129710;-39
2023/05/05 10:43:08;;;;;;;6.50;1.38;;;;;;;20.54;39.09;101616.31;16120735;19;129818;-39
2023/05/05 10:49:14;;;;;;;5.72;0.82;;;;;;;20.63;38.86;101613.97;16124372;19;129360;-39
2023/05/05 10:54:49;;;;;;;4.03;1.05;;;;;;;20.67;39.32;101597.69;16125939;19;129560;-39
2023/05/05 11:00:37;;;;;;;2.70;0.50;;;;;;;20.70;38.97;101591.59;16125175;19;129317;-38
2023/05/05 11:06:06;;;;;;;4.55;0.80;;;;;;;20.72;38.81;101595.84;16125516;19;130456;-39
2023/05/05 11:12:01;;;;;;;4.15;0.93;;;;;;;20.74;39.28;101587.25;16123614;19;129485;-39
2023/05/05 11:17:47;;;;;;;7.00;0.77;;;;;;;20.77;39.01;101574.81;16125257;19;129965;-39
2023/05/05 11:23:09;;;;;;;1.92;0.70;;;;;;;20.80;39.09;101563.22;16124266;19;131040;-39
2023/05/05 11:28:31;;;;;;;2.60;0.82;;;;;;;20.81;38.95;101565.75;16117748;19;129308;-38
2023/05/05 11:33:53;;;;;;;1.15;0.73;;;;;;;20.86;38.91;101562.25;16123493;19;129338;-38
2023/05/05 11:39:35;;;;;;;1.83;0.70;;;;;;;20.85;38.93;101564.16;16121216;19;129481;-38
2023/05/05 11:44:57;;;;;;;2.17;0.68;;;;;;;20.85;39.18;101555.81;16121557;19;129613;-37
2023/05/05 11:50:20;;;;;;;3.50;0.90;;;;;;;20.86;39.37;101546.41;16120477;19;131010;-38
2023/05/05 11:55:42;;;;;;;3.42;0.82;;;;;;;20.87;39.06;101553.66;16122487;19;129789;-38
2023/05/05 12:01:05;;;;;;;1.20;0.70;;;;;;;20.90;39.15;101546.75;16122694;19;128976;-38
2023/05/05 12:06:32;;;;;;;1.10;0.50;;;;;;;20.96;39.26;101553.25;16122703;19;130206;-39
2023/05/05 12:11:57;;;;;;;1.98;0.50;;;;;;;21.00;39.05;101555.28;16117389;19;129620;-40
2023/05/05 12:17:21;;;;;;;1.00;0.50;;;;;;;21.04;38.72;101550.09;16122520;19;130179;-40
2023/05/05 12:22:43;;;;;;;1.70;0.60;;;;;;;21.11;38.80;101542.44;16121315;19;129107;-40
2023/05/05 12:28:08;;;;;;;2.58;0.70;;;;;;;21.16;38.58;101536.97;16114803;19;135556;-44
2023/05/05 12:33:38;;;;;;;4.90;0.95;;;;;;;21.22;38.81;101547.09;16113892;19;131436;-40
2023/05/05 12:39:00;;;;;;;7.47;1.00;;;;;;;21.24;39.32;101546.00;16116765;19;130617;-41
2023/05/05 12:44:22;;;;;;;9.63;0.90;;;;;;;21.27;39.78;101542.75;16121248;19;129699;-38
2023/05/05 12:49:49;;;;;;;4.38;1.25;;;;;;;21.27;40.50;101537.16;16117927;19;131265;-39
2023/05/05 12:55:11;;;;;;;2.22;0.73;;;;;;;21.30;41.13;101528.31;16116566;19;130439;-39
2023/05/05 13:00:33;;;;;;;9.00;1.02;;;;;;;21.32;41.29;101532.53;16115962;19;130309;-39
2023/05/05 13:05:55;;;;;;;1.85;0.60;;;;;;;21.33;41.34;101519.47;16115914;19;129679;-39
2023/05/05 13:11:17;;;;;;;4.53;0.75;;;;;;;21.31;41.93;101530.00;16117405;19;129946;-40
2023/05/05 13:16:39;;;;;;;4.13;1.08;;;;;;;21.22;41.80;101519.28;16107981;19;130194;-40
2023/05/05 13:22:01;;;;;;;9.52;1.50;;;;;;;21.15;42.15;101526.94;16115385;19;129757;-40
2023/05/05 13:27:23;;;;;;;9.63;1.00;;;;;;;21.10;41.92;101521.28;16114568;19;130784;-41
2023/05/05 13:32:45;;;;;;;4.65;1.02;;;;;;;21.08;41.94;101526.22;16114926;19;130244;-40
2023/05/05 13:38:07;;;;;;;6.85;1.27;;;;;;;21.08;42.16;101531.81;16112729;19;129259;-43
2023/05/05 13:43:29;;;;;;;6.95;0.95;;;;;;;21.05;42.52;101529.50;16112880;19;131267;-43
2023/05/05 13:48:51;;;;;;;4.47;1.00;;;;;;;21.03;42.67;101520.59;16114244;19;129858;-42
2023/05/05 13:54:17;;;;;;;5.30;0.88;;;;;;;21.06;43.03;101517.28;16124918;19;130685;-41
2023/05/05 13:59:39;;;;;;;5.25;1.00;;;;;;;21.08;43.08;101520.66;16128241;19;130656;-40
2023/05/05 14:05:00;;;;;;;3.75;0.75;;;;;;;21.09;43.45;101515.97;16127913;19;131011;-43
2023/05/05 14:10:24;;;;;;;2.03;0.90;;;;;;;21.10;43.84;101528.78;16122430;19;129837;-41
2023/05/05 14:15:49;;;;;;;3.70;0.88;;;;;;;21.09;44.24;101514.00;16120044;19;129665;-41
2023/05/05 14:21:11;;;;;;;2.38;0.63;;;;;;;21.10;43.92;101504.56;16120053;19;133522;-43
2023/05/05 14:26:32;;;;;;;3.85;0.85;;;;;;;21.12;43.80;101494.06;16121260;19;129648;-44
2023/05/05 14:31:54;;;;;;;5.05;0.98;;;;;;;21.12;43.70;101501.53;16123401;19;131578;-42
2023/05/05 14:37:16;;;;;;;4.13;1.10;;;;;;;21.11;43.84;101497.91;16125323;19;129525;-42
2023/05/05 14:42:38;;;;;;;8.93;0.90;;;;;;;21.06;44.21;101498.69;16119363;19;131742;-43
2023/05/05 14:48:00;;;;;;;2.58;0.70;;;;;;;21.02;44.44;101510.56;16123842;19;134402;-41
2023/05/05 14:53:22;;;;;;;6.47;1.08;;;;;;;20.97;44.54;101525.22;16123731;19;130186;-43
2023/05/05 14:58:44;;;;;;;8.63;1.00;;;;;;;20.92;44.47;101535.38;16122220;19;129231;-40
2023/05/05 15:04:09;;;;;;;7.80;1.27;;;;;;;20.86;44.35;101523.31;16118909;19;129135;-41
2023/05/05 15:09:31;;;;;;;2.40;0.90;;;;;;;20.83;44.78;101524.63;16124032;19;129356;-41
2023/05/05 15:14:54;;;;;;;2.60;1.00;;;;;;;20.84;44.46;101520.75;16118637;19;129727;-40
2023/05/05 15:20:16;;;;;;;4.57;1.17;;;;;;;20.86;45.30;101513.03;16116368;19;129690;-43
2023/05/05 15:25:37;;;;;;;3.00;0.70;;;;;;;20.93;45.12;101503.69;16116928;19;131500;-41
2023/05/05 15:31:01;;;;;;;3.80;0.70;;;;;;;20.97;45.63;101513.22;16120883;19;129602;-41
2023/05/05 15:36:23;;;;;;;4.50;1.00;;;;;;;21.00;45.77;101512.72;16124522;19;128887;-39
2023/05/05 15:41:45;;;;;;;3.35;0.90;;;;;;;21.03;45.56;101517.81;16118808;19;130372;-40
2023/05/05 15:47:07;;;;;;;2.88;0.95;;;;;;;21.05;45.75;101510.03;16119854;19;130296;-41
2023/05/05 15:52:29;;;;;;;5.00;0.82;;;;;;;21.04;45.75;101511.16;16113907;19;130149;-42
2023/05/05 15:57:52;;;;;;;1.95;0.60;;;;;;;21.07;46.18;101502.28;16117459;19;129619;-41
2023/05/05 16:03:14;;;;;;;4.10;1.00;;;;;;;21.06;45.60;101506.16;16113245;19;130071;-40
2023/05/05 16:08:36;;;;;;;2.30;0.90;;;;;;;21.06;45.76;101509.81;16113208;19;129414;-40
2023/05/05 16:13:57;;;;;;;3.53;0.80;;;;;;;21.07;45.82;101502.28;16112980;19;130787;-42
2023/05/05 16:19:21;;;;;;;5.63;0.98;;;;;;;21.06;46.03;101509.81;16107673;19;130515;-42
2023/05/05 16:24:43;;;;;;;3.70;0.98;;;;;;;21.06;46.23;101504.25;16109836;19;130526;-45
2023/05/05 16:30:06;;;;;;;4.85;0.80;;;;;;;21.08;46.12;101509.53;16114569;19;129462;-40
2023/05/05 16:35:27;;;;;;;6.38;1.27;;;;;;;21.10;46.22;101512.91;16111923;19;129319;-41
2023/05/05 16:40:49;;;;;;;6.00;1.05;;;;;;;21.10;46.62;101507.34;16113228;19;130352;-42
2023/05/05 16:46:11;;;;;;;7.30;0.93;;;;;;;21.11;46.77;101502.66;16109173;19;131548;-41
2023/05/05 16:51:33;;;;;;;4.05;0.98;;;;;;;21.09;46.54;101513.19;16114827;19;130557;-40
2023/05/05 16:56:55;;;;;;;3.60;1.10;;;;;;;21.04;46.44;101502.81;16111983;19;130693;-41
2023/05/05 17:02:17;;;;;;;5.93;1.00;;;;;;;21.01;46.97;101506.91;16112112;19;129965;-41
2023/05/05 17:07:39;;;;;;;4.10;0.73;;;;;;;20.98;46.92;101512.13;16110624;19;130544;-42
2023/05/05 17:13:01;;;;;;;2.85;0.90;;;;;;;20.97;46.80;101486.25;16110033;19;130654;-43
2023/05/05 17:18:24;;;;;;;4.18;1.00;;;;;;;20.96;46.54;101480.94;16113648;19;129872;-42
2023/05/05 17:23:46;;;;;;;1.98;0.90;;;;;;;20.94;46.55;101485.91;16115773;19;131797;-40
2023/05/05 17:29:08;;;;;;;5.53;1.60;;;;;;;20.90;47.11;101482.78;16114434;19;130520;-42
2023/05/05 17:34:33;;;;;;;4.68;1.48;;;;;;;20.92;46.84;101493.66;16115731;19;129326;-43
2023/05/05 17:39:55;;;;;;;7.35;1.95;;;;;;;20.95;47.34;101488.44;16115357;19;130436;-40
2023/05/05 17:45:17;;;;;;;8.05;1.67;;;;;;;20.94;46.77;101486.75;16113467;19;131130;-45
2023/05/05 17:50:39;;;;;;;8.75;1.60;;;;;;;20.94;47.38;101494.25;16108784;19;131514;-40
2023/05/05 17:56:04;;;;;;;5.17;1.90;;;;;;;20.90;46.97;101497.53;16106365;19;129550;-41
2023/05/05 18:01:29;;;;;;;4.55;1.80;;;;;;;20.88;46.94;101494.16;16104276;19;130566;-43
2023/05/05 18:06:54;;;;;;;21.58;2.58;;;;;;;20.84;47.76;101504.06;16099714;19;130315;-43
2023/05/05 18:12:16;;;;;;;9.52;2.33;;;;;;;20.84;47.93;101503.25;16104241;19;130386;-42
2023/05/05 18:17:38;;;;;;;18.00;2.53;;;;;;;20.89;48.40;101504.19;16101763;19;130316;-44
2023/05/05 18:23:00;;;;;;;9.73;2.15;;;;;;;20.97;48.56;101496.53;16075797;19;132352;-47
2023/05/05 18:28:22;;;;;;;20.52;2.60;;;;;;;21.02;48.54;101503.03;16102992;19;129339;-48
2023/05/05 18:33:46;;;;;;;23.93;2.93;;;;;;;21.06;48.64;101511.72;16105001;19;131537;-45
2023/05/05 18:39:09;;;;;;;22.55;3.35;;;;;;;21.10;48.11;101515.72;16100956;19;129593;-46
2023/05/05 18:44:33;;;;;;;21.58;3.30;;;;;;;21.14;48.58;101524.41;16099412;19;132941;-45
2023/05/05 18:49:55;;;;;;;16.77;2.90;;;;;;;21.15;48.61;101520.53;16088495;19;132974;-44
2023/05/05 18:55:17;;;;;;;15.00;2.35;;;;;;;21.15;48.55;101532.50;16113860;19;131569;-43
2023/05/05 19:00:39;;;;;;;15.20;2.67;;;;;;;21.13;48.52;101529.13;16088104;19;130945;-45
2023/05/05 19:06:05;;;;;;;16.10;2.13;;;;;;;21.13;48.56;101540.25;16120065;19;130422;-44
2023/05/05 19:11:27;;;;;;;16.98;2.10;;;;;;;21.17;48.56;101541.44;16117708;19;129759;-43
2023/05/05 19:16:49;;;;;;;12.93;2.22;;;;;;;21.17;48.44;101544.22;16119660;19;129362;-46
2023/05/05 19:22:11;;;;;;;15.32;2.15;;;;;;;21.16;48.85;101548.13;16119756;19;130471;-44
2023/05/05 19:27:35;;;;;;;6.28;1.70;;;;;;;21.17;48.53;101549.78;16120292;19;130834;-42
2023/05/05 19:32:57;;;;;;;12.10;2.38;;;;;;;21.17;48.51;101558.13;16117508;19;130923;-42
2023/05/05 19:38:19;;;;;;;8.65;1.38;;;;;;;21.17;48.51;101547.00;16117411;19;131280;-44
2023/05/05 19:43:41;;;;;;;6.22;1.55;;;;;;;21.18;48.91;101562.59;16118190;19;130548;-46
2023/05/05 19:49:03;;;;;;;10.05;1.90;;;;;;;21.17;48.52;101566.47;16112605;19;130331;-45
2023/05/05 19:54:26;;;;;;;12.65;1.50;;;;;;;21.17;48.98;101560.91;16114780;19;133065;-44
2023/05/05 19:59:48;;;;;;;10.05;1.40;;;;;;;21.17;48.54;101563.69;16117822;19;130807;-42
2023/05/05 20:05:12;;;;;;;3.08;1.10;;;;;;;21.19;48.69;101569.84;16116438;19;131299;-42
2023/05/05 20:10:35;;;;;;;4.07;1.40;;;;;;;21.21;48.71;101569.63;16119106;19;129731;-44
2023/05/05 20:15:57;;;;;;;6.43;1.20;;;;;;;21.20;49.00;101571.53;16117109;19;129473;-42
2023/05/05 20:21:20;;;;;;;7.88;1.40;;;;;;;21.19;48.65;101575.41;16120832;19;130847;-42
2023/05/05 20:26:41;;;;;;;7.63;1.55;;;;;;;21.18;48.57;101581.25;16118403;19;129626;-42
2023/05/05 20:32:04;;;;;;;3.35;1.00;;;;;;;21.15;48.55;101582.59;16115198;19;129740;-42
2023/05/05 20:37:26;;;;;;;5.57;0.95;;;;;;;21.13;49.04;101583.91;16116520;19;130269;-42
2023/05/05 20:42:49;;;;;;;4.43;1.00;;;;;;;21.07;48.65;101580.19;16114661;19;129820;-45
2023/05/05 20:48:11;;;;;;;4.00;1.00;;;;;;;21.04;49.19;101586.25;16117017;19;129620;-44
2023/05/05 20:53:33;;;;;;;3.08;1.08;;;;;;;21.01;48.35;101567.28;16111270;19;129956;-43
2023/05/05 20:58:55;;;;;;;5.97;1.17;;;;;;;20.98;48.77;101576.09;16110331;19;130299;-45
2023/05/05 21:04:17;;;;;;;5.55;1.10;;;;;;;20.94;48.61;101578.53;16110593;19;130821;-43
2023/05/05 21:09:39;;;;;;;32.80;3.08;;;;;;;20.92;49.16;101560.41;16113035;19;129480;-43
2023/05/05 21:15:01;;;;;;;7.93;1.63;;;;;;;20.88;48.54;101558.13;16113538;19;130897;-41
2023/05/05 21:20:23;;;;;;;11.90;1.40;;;;;;;20.84;48.46;101543.00;16110791;19;131464;-42
2023/05/05 21:25:45;;;;;;;7.40;1.35;;;;;;;20.80;48.11;101540.97;16110917;19;129724;-44
2023/05/05 21:31:07;;;;;;;5.45;1.20;;;;;;;20.76;48.35;101540.63;16110022;19;129859;-48
2023/05/05 21:36:32;;;;;;;8.30;1.10;;;;;;;20.72;48.23;101556.94;16110424;19;130820;-45
2023/05/05 21:41:54;;;;;;;5.03;1.00;;;;;;;20.68;47.72;101563.19;16110817;19;129914;-42
2023/05/05 21:47:16;;;;;;;9.13;1.27;;;;;;;20.66;48.08;101551.50;16109394;19;129831;-52
2023/05/05 21:52:38;;;;;;;7.03;0.88;;;;;;;20.60;47.59;101548.59;16106437;19;130411;-49
2023/05/05 21:58:00;;;;;;;3.72;0.73;;;;;;;20.59;48.10;101548.84;16110693;19;129745;-46
2023/05/05 22:03:22;;;;;;;4.28;0.65;;;;;;;20.55;47.57;101550.44;16108485;19;130920;-48
2023/05/05 22:08:44;;;;;;;1.35;0.70;;;;;;;20.53;47.59;101553.47;16103337;19;129659;-48
2023/05/05 22:14:06;;;;;;;2.67;0.90;;;;;;;20.51;47.93;101552.84;16117208;19;130404;-44
2023/05/05 22:19:27;;;;;;;10.20;0.88;;;;;;;20.49;47.94;101554.19;16120560;19;130605;-50
2023/05/05 22:24:49;;;;;;;5.72;0.90;;;;;;;20.46;47.73;101558.28;16119470;19;129926;-52
2023/05/05 22:30:12;;;;;;;6.22;0.68;;;;;;;20.44;47.41;101544.66;16120911;19;131419;-45
2023/05/05 22:35:34;;;;;;;1.63;0.50;;;;;;;20.41;47.65;101552.63;16121541;19;129941;-46
2023/05/05 22:40:55;;;;;;;3.38;0.70;;;;;;;20.40;47.83;101564.84;16122458;19;130760;-43
2023/05/05 22:46:17;;;;;;;1.20;0.50;;;;;;;20.38;47.47;101555.88;16118596;19;130846;-54
2023/05/05 22:51:40;;;;;;;2.15;0.43;;;;;;;20.37;47.87;101554.19;16122694;19;130562;-44
2023/05/05 22:57:02;;;;;;;1.63;0.55;;;;;;;20.34;47.69;101558.31;16123995;19;131169;-46
2023/05/05 23:02:25;;;;;;;1.55;0.40;;;;;;;20.33;47.55;101558.53;16121995;19;129771;-45
2023/05/05 23:07:47;;;;;;;3.33;0.63;;;;;;;20.31;47.63;101544.06;16115982;19;130887;-46
2023/05/05 23:13:09;;;;;;;2.28;0.60;;;;;;;20.28;47.43;101551.78;16119408;19;129442;-50
2023/05/05 23:18:31;;;;;;;1.13;0.52;;;;;;;20.27;47.56;101549.25;16116739;19;129462;-42
2023/05/05 23:23:54;;;;;;;1.35;0.50;;;;;;;20.26;47.29;101555.88;16119897;19;129702;-40
2023/05/05 23:29:16;;;;;;;1.38;0.40;;;;;;;20.23;47.54;101554.44;16117575;19;130761;-41
2023/05/05 23:34:37;;;;;;;1.15;0.30;;;;;;;20.22;47.62;101552.75;16113557;19;129976;-41
2023/05/05 23:39:59;;;;;;;0.75;0.40;;;;;;;20.21;47.22;101545.50;16119054;19;131787;-48
2023/05/05 23:45:21;;;;;;;0.98;0.30;;;;;;;20.20;47.44;101535.47;16115840;19;130366;-43
2023/05/05 23:50:43;;;;;;;1.15;0.32;;;;;;;20.18;47.47;101534.91;16116112;19;130750;-45
2023/05/05 23:56:05;;;;;;;2.17;0.50;;;;;;;20.18;46.98;101534.91;16121519;19;130470;-41
